sensor_id;sensor_type;location;lat;lon;timestamp;pressure;altitude;pressure_sealevel;temperature;humidity
22255;BME280;11296;42.684;23.322;2023-02-12T00:00:41;96186.09;;;0.86;56.59
22255;BME280;11296;42.684;23.322;2023-02-12T00:03:07;96195.53;;;0.97;56.72
22255;BME280;11296;42.684;23.322;2023-02-12T00:05:33;96165.25;;;0.81;56.17
22255;BME280;11296;42.684;23.322;2023-02-12T00:07:58;96210.69;;;1.07;56.01
22255;BME280;11296;42.684;23.322;2023-02-12T00:10:24;96171.31;;;0.95;56.30
22255;BME280;11296;42.684;23.322;2023-02-12T00:12:52;96169.06;;;0.97;56.28
22255;BME280;11296;42.684;23.322;2023-02-12T00:15:18;96191.75;;;1.02;55.94
22255;BME280;11296;42.684;23.322;2023-02-12T00:17:44;96149.75;;;0.83;56.42
22255;BME280;11296;42.684;23.322;2023-02-12T00:20:09;96210.31;;;1.09;56.84
22255;BME280;11296;42.684;23.322;2023-02-12T00:22:35;96139.13;;;0.68;56.27
22255;BME280;11296;42.684;23.322;2023-02-12T00:25:01;96196.66;;;0.93;56.62
22255;BME280;11296;42.684;23.322;2023-02-12T00:27:27;96212.22;;;1.15;56.56
22255;BME280;11296;42.684;23.322;2023-02-12T00:29:55;96175.09;;;0.77;56.47
22255;BME280;11296;42.684;23.322;2023-02-12T00:32:20;96152.75;;;0.67;56.58
22255;BME280;11296;42.684;23.322;2023-02-12T00:34:46;96216.38;;;1.20;56.30
22255;BME280;11296;42.684;23.322;2023-02-12T00:37:14;96158.44;;;0.80;56.33
22255;BME280;11296;42.684;23.322;2023-02-12T00:39:40;96139.56;;;0.88;56.25
22255;BME280;11296;42.684;23.322;2023-02-12T00:42:06;96180.03;;;1.06;56.01
22255;BME280;11296;42.684;23.322;2023-02-12T00:44:32;96160.75;;;1.02;56.13
22255;BME280;11296;42.684;23.322;2023-02-12T00:46:58;96165.28;;;1.09;56.23
22255;BME280;11296;42.684;23.322;2023-02-12T00:49:29;96149.75;;;0.90;56.46
22255;BME280;11296;42.684;23.322;2023-02-12T00:51:59;96147.50;;;0.99;56.47
22255;BME280;11296;42.684;23.322;2023-02-12T00:54:26;96158.09;;;1.02;56.36
22255;BME280;11296;42.684;23.322;2023-02-12T00:56:52;96119.84;;;0.93;56.46
22255;BME280;11296;42.684;23.322;2023-02-12T00:59:21;96161.88;;;1.05;56.63
22255;BME280;11296;42.684;23.322;2023-02-12T01:01:46;96159.25;;;1.12;57.09
22255;BME280;11296;42.684;23.322;2023-02-12T01:04:14;96122.91;;;0.98;56.55
22255;BME280;11296;42.684;23.322;2023-02-12T01:06:39;96141.44;;;1.05;56.72
22255;BME280;11296;42.684;23.322;2023-02-12T01:09:05;96140.31;;;1.13;56.68
22255;BME280;11296;42.684;23.322;2023-02-12T01:11:31;96124.81;;;1.01;56.81
22255;BME280;11296;42.684;23.322;2023-02-12T01:13:56;96117.22;;;0.86;57.03
22255;BME280;11296;42.684;23.322;2023-02-12T01:16:23;96103.97;;;0.82;56.73
22255;BME280;11296;42.684;23.322;2023-02-12T01:18:49;96158.47;;;1.01;56.99
22255;BME280;11296;42.684;23.322;2023-02-12T01:21:22;96152.78;;;1.13;56.89
22255;BME280;11296;42.684;23.322;2023-02-12T01:23:48;96138.03;;;1.08;56.88
22255;BME280;11296;42.684;23.322;2023-02-12T01:26:16;96106.22;;;0.91;56.99
22255;BME280;11296;42.684;23.322;2023-02-12T01:28:43;96141.81;;;1.14;56.98
22255;BME280;11296;42.684;23.322;2023-02-12T01:31:18;96164.16;;;1.20;57.39
22255;BME280;11296;42.684;23.322;2023-02-12T01:33:47;96125.16;;;0.89;57.56
22255;BME280;11296;42.684;23.322;2023-02-12T01:36:13;96142.56;;;0.94;58.15
22255;BME280;11296;42.684;23.322;2023-02-12T01:38:39;96097.53;;;0.58;58.26
22255;BME280;11296;42.684;23.322;2023-02-12T01:41:13;96143.34;;;1.05;58.24
22255;BME280;11296;42.684;23.322;2023-02-12T01:43:38;96133.50;;;0.98;58.32
22255;BME280;11296;42.684;23.322;2023-02-12T01:46:07;96131.97;;;0.97;58.57
22255;BME280;11296;42.684;23.322;2023-02-12T01:48:37;96112.69;;;0.79;58.74
22255;BME280;11296;42.684;23.322;2023-02-12T01:51:06;96106.25;;;0.84;58.71
22255;BME280;11296;42.684;23.322;2023-02-12T01:53:44;96111.94;;;0.86;59.25
22255;BME280;11296;42.684;23.322;2023-02-12T01:56:11;96098.66;;;0.75;59.04
22255;BME280;11296;42.684;23.322;2023-02-12T01:58:41;96106.22;;;0.69;59.26
22255;BME280;11296;42.684;23.322;2023-02-12T02:01:14;96168.69;;;1.06;59.29
22255;BME280;11296;42.684;23.322;2023-02-12T02:03:44;96107.75;;;0.74;59.57
22255;BME280;11296;42.684;23.322;2023-02-12T02:06:19;96081.25;;;0.56;59.62
22255;BME280;11296;42.684;23.322;2023-02-12T02:08:45;96075.97;;;0.49;60.05
22255;BME280;11296;42.684;23.322;2023-02-12T02:11:11;96122.13;;;0.69;60.57
22255;BME280;11296;42.684;23.322;2023-02-12T02:14:01;96151.25;;;0.80;60.83
22255;BME280;11296;42.684;23.322;2023-02-12T02:16:56;96135.75;;;0.68;60.96
22255;BME280;11296;42.684;23.322;2023-02-12T02:30:14;96120.94;;;0.39;63.39
22255;BME280;11296;42.684;23.322;2023-02-12T02:36:04;96154.59;;;0.49;64.58
22255;BME280;11296;42.684;23.322;2023-02-12T02:38:49;96096.25;;;0.03;65.40
22255;BME280;11296;42.684;23.322;2023-02-12T02:41:30;96130.75;;;0.24;66.13
22255;BME280;11296;42.684;23.322;2023-02-12T02:44:04;96118.59;;;0.13;66.38
22255;BME280;11296;42.684;23.322;2023-02-12T02:46:39;96096.56;;;-0.20;67.74
22255;BME280;11296;42.684;23.322;2023-02-12T02:49:12;96109.03;;;-0.13;68.00
22255;BME280;11296;42.684;23.322;2023-02-12T02:51:42;96103.75;;;-0.13;68.97
22255;BME280;11296;42.684;23.322;2023-02-12T02:54:20;96139.03;;;0.19;68.77
22255;BME280;11296;42.684;23.322;2023-02-12T02:56:50;96117.03;;;0.05;67.82
22255;BME280;11296;42.684;23.322;2023-02-12T02:59:24;96097.81;;;0.15;67.41
22255;BME280;11296;42.684;23.322;2023-02-12T03:02:35;96170.47;;;0.49;68.20
22255;BME280;11296;42.684;23.322;2023-02-12T03:04:57;96156.84;;;0.36;68.52
22255;BME280;11296;42.684;23.322;2023-02-12T03:07:32;96131.06;;;0.12;69.04
22255;BME280;11296;42.684;23.322;2023-02-12T03:12:39;96137.84;;;0.06;69.84
22255;BME280;11296;42.684;23.322;2023-02-12T03:15:35;96168.19;;;0.40;69.95
22255;BME280;11296;42.684;23.322;2023-02-12T03:18:07;96148.53;;;0.34;70.34
22255;BME280;11296;42.684;23.322;2023-02-12T03:20:45;96164.44;;;0.55;69.84
22255;BME280;11296;42.684;23.322;2023-02-12T03:23:16;96120.50;;;0.19;70.19
22255;BME280;11296;42.684;23.322;2023-02-12T03:25:57;96130.72;;;0.17;70.59
22255;BME280;11296;42.684;23.322;2023-02-12T03:28:31;96143.22;;;0.38;71.17
22255;BME280;11296;42.684;23.322;2023-02-12T03:31:11;96148.56;;;0.48;71.25
22255;BME280;11296;42.684;23.322;2023-02-12T03:38:55;96076.94;;;-0.15;71.79
22255;BME280;11296;42.684;23.322;2023-02-12T03:41:26;96071.66;;;-0.08;72.51
22255;BME280;11296;42.684;23.322;2023-02-12T03:46:42;96150.88;;;0.67;72.19
22255;BME280;11296;42.684;23.322;2023-02-12T03:49:31;96139.16;;;0.75;71.95
22255;BME280;11296;42.684;23.322;2023-02-12T03:51:59;96094.09;;;0.47;71.68
22255;BME280;11296;42.684;23.322;2023-02-12T03:54:25;96106.97;;;0.52;71.19
22255;BME280;11296;42.684;23.322;2023-02-12T03:56:56;96114.19;;;0.66;71.18
22255;BME280;11296;42.684;23.322;2023-02-12T03:59:24;96135.75;;;0.71;70.82
22255;BME280;11296;42.684;23.322;2023-02-12T04:01:52;96144.47;;;0.97;70.35
22255;BME280;11296;42.684;23.322;2023-02-12T04:04:19;96143.34;;;0.94;70.17
22255;BME280;11296;42.684;23.322;2023-02-12T04:06:47;96080.53;;;0.59;70.37
22255;BME280;11296;42.684;23.322;2023-02-12T04:09:14;96093.38;;;0.50;70.60
22255;BME280;11296;42.684;23.322;2023-02-12T04:17:20;96154.66;;;0.81;70.88
22255;BME280;11296;42.684;23.322;2023-02-12T04:22:54;96165.25;;;0.81;71.61
22255;BME280;11296;42.684;23.322;2023-02-12T04:31:08;96089.53;;;0.30;71.83
22255;BME280;11296;42.684;23.322;2023-02-12T04:33:47;96131.19;;;0.54;71.90
22255;BME280;11296;42.684;23.322;2023-02-12T04:36:25;96101.63;;;0.31;71.52
22255;BME280;11296;42.684;23.322;2023-02-12T04:38:59;96100.16;;;0.51;72.01
22255;BME280;11296;42.684;23.322;2023-02-12T04:41:26;96102.44;;;0.53;72.13
22255;BME280;11296;42.684;23.322;2023-02-12T04:43:53;96128.94;;;0.63;72.07
22255;BME280;11296;42.684;23.322;2023-02-12T04:46:18;96094.13;;;0.54;71.96
22255;BME280;11296;42.684;23.322;2023-02-12T04:48:56;96173.59;;;1.00;72.22
22255;BME280;11296;42.684;23.322;2023-02-12T04:51:23;96123.25;;;0.75;71.93
22255;BME280;11296;42.684;23.322;2023-02-12T04:53:50;96132.34;;;0.74;72.09
22255;BME280;11296;42.684;23.322;2023-02-12T04:56:16;96142.19;;;0.81;71.83
22255;BME280;11296;42.684;23.322;2023-02-12T04:58:42;96114.19;;;0.66;72.43
22255;BME280;11296;42.684;23.322;2023-02-12T05:01:08;96136.13;;;0.88;72.36
22255;BME280;11296;42.684;23.322;2023-02-12T05:03:35;96151.66;;;1.00;72.00
22255;BME280;11296;42.684;23.322;2023-02-12T05:06:07;96098.28;;;0.62;72.03
22255;BME280;11296;42.684;23.322;2023-02-12T05:08:33;96134.97;;;0.82;72.28
22255;BME280;11296;42.684;23.322;2023-02-12T05:11:07;96120.22;;;0.63;72.88
22255;BME280;11296;42.684;23.322;2023-02-12T05:13:33;96164.13;;;0.78;72.96
22255;BME280;11296;42.684;23.322;2023-02-12T05:15:59;96166.00;;;0.77;73.38
22255;BME280;11296;42.684;23.322;2023-02-12T05:18:27;96136.13;;;0.70;73.42
22255;BME280;11296;42.684;23.322;2023-02-12T05:20:57;96179.25;;;0.85;74.04
22255;BME280;11296;42.684;23.322;2023-02-12T05:23:25;96149.34;;;0.73;74.10
22255;BME280;11296;42.684;23.322;2023-02-12T05:25:52;96142.91;;;0.64;74.62
22255;BME280;11296;42.684;23.322;2023-02-12T05:28:18;96138.75;;;0.66;73.96
22255;BME280;11296;42.684;23.322;2023-02-12T05:30:44;96164.88;;;0.82;73.98
22255;BME280;11296;42.684;23.322;2023-02-12T05:33:09;96194.81;;;0.97;73.38
22255;BME280;11296;42.684;23.322;2023-02-12T05:35:35;96192.53;;;0.99;73.77
22255;BME280;11296;42.684;23.322;2023-02-12T05:38:00;96145.22;;;0.90;74.24
22255;BME280;11296;42.684;23.322;2023-02-12T05:40:26;96170.19;;;0.93;74.98
22255;BME280;11296;42.684;23.322;2023-02-12T05:42:52;96170.94;;;0.79;76.16
22255;BME280;11296;42.684;23.322;2023-02-12T05:45:20;96213.00;;;1.12;78.21
22255;BME280;11296;42.684;23.322;2023-02-12T05:47:46;96216.38;;;0.99;80.73
22255;BME280;11296;42.684;23.322;2023-02-12T05:50:11;96184.94;;;0.72;82.72
22255;BME280;11296;42.684;23.322;2023-02-12T05:52:37;96176.59;;;0.85;83.68
22255;BME280;11296;42.684;23.322;2023-02-12T05:55:03;96209.13;;;0.78;87.09
22255;BME280;11296;42.684;23.322;2023-02-12T05:57:31;96216.66;;;0.55;92.89
22255;BME280;11296;42.684;23.322;2023-02-12T05:59:56;96207.59;;;0.73;97.81
22255;BME280;11296;42.684;23.322;2023-02-12T06:02:22;96192.41;;;0.49;100.00
22255;BME280;11296;42.684;23.322;2023-02-12T06:04:50;96191.69;;;0.52;100.00
22255;BME280;11296;42.684;23.322;2023-02-12T06:07:16;96211.75;;;0.71;100.00
22255;BME280;11296;42.684;23.322;2023-02-12T06:09:41;96216.69;;;0.72;100.00
22255;BME280;11296;42.684;23.322;2023-02-12T06:12:07;96193.22;;;0.60;100.00
22255;BME280;11296;42.684;23.322;2023-02-12T06:14:32;96185.63;;;0.55;100.00
22255;BME280;11296;42.684;23.322;2023-02-12T06:16:58;96194.75;;;0.75;100.00
22255;BME280;11296;42.684;23.322;2023-02-12T06:19:26;96223.91;;;0.86;100.00
22255;BME280;11296;42.684;23.322;2023-02-12T06:21:52;96242.91;;;1.16;100.00
22255;BME280;11296;42.684;23.322;2023-02-12T06:24:21;96186.00;;;0.50;100.00
22255;BME280;11296;42.684;23.322;2023-02-12T06:26:49;96207.63;;;0.81;100.00
22255;BME280;11296;42.684;23.322;2023-02-12T06:29:17;96221.25;;;0.83;100.00
22255;BME280;11296;42.684;23.322;2023-02-12T06:31:43;96217.47;;;0.80;100.00
22255;BME280;11296;42.684;23.322;2023-02-12T06:34:10;96236.03;;;0.98;100.00
22255;BME280;11296;42.684;23.322;2023-02-12T06:36:39;96197.00;;;0.66;100.00
22255;BME280;11296;42.684;23.322;2023-02-12T06:39:07;96221.19;;;0.54;100.00
22255;BME280;11296;42.684;23.322;2023-02-12T06:41:33;96234.84;;;0.77;100.00
22255;BME280;11296;42.684;23.322;2023-02-12T06:43:59;96225.78;;;0.79;100.00
22255;BME280;11296;42.684;23.322;2023-02-12T06:46:25;96223.53;;;0.77;100.00
22255;BME280;11296;42.684;23.322;2023-02-12T06:48:55;96260.97;;;0.86;100.00
22255;BME280;11296;42.684;23.322;2023-02-12T06:51:21;96203.78;;;0.50;100.00
22255;BME280;11296;42.684;23.322;2023-02-12T06:53:48;96211.38;;;0.65;100.00
22255;BME280;11296;42.684;23.322;2023-02-12T06:56:16;96214.03;;;0.65;100.00
22255;BME280;11296;42.684;23.322;2023-02-12T06:58:45;96225.34;;;0.62;100.00
22255;BME280;11296;42.684;23.322;2023-02-12T07:01:16;96225.75;;;0.64;100.00
22255;BME280;11296;42.684;23.322;2023-02-12T07:03:57;96218.91;;;0.53;100.00
22255;BME280;11296;42.684;23.322;2023-02-12T07:06:34;96268.59;;;0.95;100.00
22255;BME280;11296;42.684;23.322;2023-02-12T07:09:01;96217.81;;;0.68;100.00
22255;BME280;11296;42.684;23.322;2023-02-12T07:11:32;96228.78;;;0.73;100.00
22255;BME280;11296;42.684;23.322;2023-02-12T07:13:59;96238.25;;;0.78;100.00
